Terminal Aerodrome Forecast
Issued by NWS

Home | Current Version | Previous Version | Text Only | Print | Product List | Glossary On
Versions: 1 2 3 4 5 6 7 8 9 10 11 12 13 14 15 16 17 18 19 20 21 22 23 24 25 26 27 28 29 30 31 32 33 34 35
000
FTUS43 KGRB 262135 AAA
TAFRHI
TAF AMD
KRHI 262135Z 2622/2718 06008KT 6SM -SHRA BR SCT025 OVC050
      TEMPO 2623/2624 4SM -SHRA BR OVC020
     FM270000 05008KT 4SM -RA BR SCT008 OVC015
      TEMPO 2701/2705 2SM RA BR BKN006
     FM270500 30008KT 2SM RA BR OVC005
     FM271100 32007KT 4SM RA BR OVC009
     FM271500 26009G15KT P6SM VCSH BKN012 BKN020=

USA.gov is the U.S. government's official web portal to all federal, state and local government web resources and services.